Huff, Kentucky
Current Conditions -  °F | °C
As of 9:53 PM on Sunday 25 Jan 2015 (Local Time) from KBWG Reporting Station
Light Rain Light Rain  
Wind Chill: 37°   Ceiling: 700
Heat Index: 40°   Visibility: 8mi
Dew Point: 37°   Wind: 5mph
Humidity: 89%   Direction: 300°WNW
Pressure: 29.71"   Gusts: NA
Location:  37.2379°N, 86.3446°W
Report Text: KBWG 260353Z AUTO 30004KT 8SM -RA BKN007 OVC021 04/03 A2971 RMK AO2 SLP061 P0003 T00440028
Loading
Personal Weather Stations






























Interactive Weather Map New forecast layout! Learn more

10-Day Weather Forecast

Advertisements
Track Severe Weather on mobile